createdAt,value
2019-02-23T00:00:49.259Z,5.89
2019-02-23T00:03:22.655Z,5.96
2019-02-23T00:05:55.976Z,5.92
2019-02-23T00:08:29.256Z,6.11
2019-02-23T00:11:02.564Z,6.14
2019-02-23T00:13:35.967Z,6.15
2019-02-23T00:16:09.345Z,6.32
2019-02-23T00:18:42.737Z,6.17
2019-02-23T00:21:16.078Z,6.25
2019-02-23T00:23:49.398Z,6.13
2019-02-23T00:26:22.685Z,5.84
2019-02-23T00:28:55.973Z,5.92
2019-02-23T00:31:29.269Z,5.85
2019-02-23T00:34:02.619Z,5.62
2019-02-23T00:36:35.890Z,5.78
2019-02-23T00:39:09.266Z,6.32
2019-02-23T00:41:42.551Z,6.35
2019-02-23T00:44:15.881Z,6.34
2019-02-23T00:46:49.131Z,6.38
2019-02-23T00:49:22.429Z,6.29
2019-02-23T00:51:55.695Z,6.05
2019-02-23T00:54:29.007Z,5.75
2019-02-23T00:57:03.925Z,5.53
2019-02-23T00:59:37.222Z,5.51
2019-02-23T01:02:12.076Z,5.68
2019-02-23T01:04:46.786Z,5.54
2019-02-23T01:07:20.062Z,5.48
2019-02-23T01:09:53.347Z,5.28
2019-02-23T01:12:26.620Z,5.16
2019-02-23T01:14:59.941Z,5.38
2019-02-23T01:17:33.222Z,5.45
2019-02-23T01:20:09.020Z,5.63
2019-02-23T01:22:42.294Z,5.64
2019-02-23T01:25:15.699Z,5.64
2019-02-23T01:27:50.066Z,5.60
2019-02-23T01:30:23.379Z,5.55
2019-02-23T01:32:56.658Z,5.41
2019-02-23T01:35:30.029Z,5.36
2019-02-23T01:38:04.726Z,5.15
2019-02-23T01:40:38.070Z,5.09
2019-02-23T01:43:11.413Z,5.12
2019-02-23T01:45:44.778Z,4.98
2019-02-23T01:48:18.050Z,4.98
2019-02-23T01:50:51.423Z,4.90
2019-02-23T01:53:24.716Z,4.93
2019-02-23T01:55:58.037Z,4.78
2019-02-23T01:58:31.307Z,4.71
2019-02-23T02:01:05.683Z,4.58
2019-02-23T02:03:38.962Z,4.46
2019-02-23T02:06:12.340Z,4.37
2019-02-23T02:08:45.995Z,4.24
2019-02-23T02:11:19.364Z,4.16
2019-02-23T02:13:53.004Z,4.20
2019-02-23T02:16:26.352Z,4.27
2019-02-23T02:18:59.657Z,4.11
2019-02-23T02:21:32.939Z,4.19
2019-02-23T02:24:06.238Z,4.37
2019-02-23T02:26:39.528Z,4.22
2019-02-23T02:29:12.920Z,4.06
2019-02-23T02:31:46.193Z,4.07
2019-02-23T02:34:19.477Z,3.93
2019-02-23T02:36:52.805Z,3.74
2019-02-23T02:39:27.715Z,3.67
2019-02-23T02:42:01.025Z,3.60
2019-02-23T02:44:34.310Z,3.28
2019-02-23T02:47:07.613Z,3.33
2019-02-23T02:49:41.003Z,3.20
2019-02-23T02:52:14.274Z,3.31
2019-02-23T02:54:47.579Z,3.27
2019-02-23T02:57:20.869Z,3.29
2019-02-23T02:59:54.159Z,3.39
2019-02-23T03:02:27.445Z,3.21
2019-02-23T03:05:00.739Z,3.05
2019-02-23T03:07:34.004Z,3.06
2019-02-23T03:10:07.662Z,3.09
2019-02-23T03:12:40.930Z,3.04
2019-02-23T03:15:14.299Z,3.18
2019-02-23T03:17:47.585Z,3.48
2019-02-23T03:20:20.882Z,3.55
2019-02-23T03:22:54.165Z,3.62
2019-02-23T03:25:27.472Z,3.48
2019-02-23T03:28:00.750Z,3.45
2019-02-23T03:30:34.158Z,3.50
2019-02-23T03:33:07.429Z,3.35
2019-02-23T03:35:40.740Z,3.35
2019-02-23T03:38:14.032Z,3.34
2019-02-23T03:40:48.367Z,3.70
2019-02-23T03:43:21.656Z,3.81
2019-02-23T03:45:54.958Z,3.64
2019-02-23T03:48:28.504Z,3.59
2019-02-23T03:51:01.833Z,3.54
2019-02-23T03:53:36.375Z,3.76
2019-02-23T03:56:09.678Z,3.57
2019-02-23T03:58:42.947Z,3.49
2019-02-23T04:01:16.240Z,3.36
2019-02-23T04:03:49.542Z,3.30
2019-02-23T04:06:22.832Z,3.43
2019-02-23T04:08:56.106Z,3.25
2019-02-23T04:11:29.418Z,3.08
2019-02-23T04:14:02.766Z,2.92
2019-02-23T04:16:36.048Z,2.90
2019-02-23T04:19:09.334Z,2.77
2019-02-23T04:21:42.632Z,2.87
2019-02-23T04:24:15.919Z,2.94
2019-02-23T04:26:49.211Z,2.96
2019-02-23T04:29:22.492Z,3.06
2019-02-23T04:31:55.791Z,3.10
2019-02-23T04:34:29.333Z,3.16
2019-02-23T04:37:02.520Z,3.00
2019-02-23T04:39:35.799Z,3.05
2019-02-23T04:42:09.108Z,2.77
2019-02-23T04:44:42.401Z,2.65
2019-02-23T04:47:15.715Z,3.01
2019-02-23T04:49:52.174Z,3.24
2019-02-23T04:52:25.476Z,2.98
2019-02-23T04:54:59.140Z,2.79
2019-02-23T04:57:32.406Z,2.51
2019-02-23T05:00:08.981Z,2.28
2019-02-23T05:02:42.368Z,2.24
2019-02-23T05:05:15.706Z,2.29
2019-02-23T05:07:51.026Z,2.26
2019-02-23T05:10:24.302Z,2.09
2019-02-23T05:12:57.603Z,2.19
2019-02-23T05:15:30.889Z,2.11
2019-02-23T05:18:04.188Z,1.98
2019-02-23T05:20:37.459Z,2.05
2019-02-23T05:23:10.764Z,2.00
2019-02-23T05:25:44.070Z,2.06
2019-02-23T05:28:17.496Z,2.23
2019-02-23T05:30:50.779Z,2.25
2019-02-23T05:33:24.094Z,2.11
2019-02-23T05:35:57.394Z,2.15
2019-02-23T05:38:33.054Z,2.11
2019-02-23T05:41:06.334Z,2.15
2019-02-23T05:43:39.621Z,2.25
2019-02-23T05:46:12.901Z,2.24
2019-02-23T05:48:46.199Z,1.94
2019-02-23T05:51:19.470Z,1.75
2019-02-23T05:53:52.786Z,1.75
2019-02-23T05:56:26.069Z,1.70
2019-02-23T05:58:59.363Z,1.86
2019-02-23T06:01:32.655Z,1.79
2019-02-23T06:04:05.957Z,1.76
2019-02-23T06:06:39.232Z,2.02
2019-02-23T06:09:12.526Z,2.15
2019-02-23T06:11:45.911Z,1.86
2019-02-23T06:14:19.193Z,2.01
2019-02-23T06:16:52.484Z,1.79
2019-02-23T06:19:25.777Z,2.05
2019-02-23T06:21:59.137Z,2.24
2019-02-23T06:24:32.428Z,2.39
2019-02-23T06:27:05.696Z,2.27
2019-02-23T06:29:39.010Z,2.08
2019-02-23T06:32:12.283Z,2.09
2019-02-23T06:34:45.602Z,2.01
2019-02-23T06:37:18.901Z,2.05
2019-02-23T06:39:52.206Z,1.88
2019-02-23T06:42:25.498Z,1.92
2019-02-23T06:44:58.788Z,1.97
2019-02-23T06:47:32.087Z,2.07
2019-02-23T06:50:06.427Z,2.23
2019-02-23T06:52:40.817Z,2.20
2019-02-23T06:55:14.122Z,2.18
2019-02-23T06:57:47.406Z,2.22
2019-02-23T07:00:20.707Z,2.26
2019-02-23T07:02:53.987Z,2.33
2019-02-23T07:05:27.279Z,2.31
2019-02-23T07:08:00.557Z,2.34
2019-02-23T07:10:33.682Z,2.30
2019-02-23T07:13:06.968Z,2.31
2019-02-23T07:15:40.289Z,2.40
2019-02-23T07:18:13.596Z,2.42
2019-02-23T07:20:46.858Z,2.43
2019-02-23T07:23:20.141Z,2.53
2019-02-23T07:25:53.439Z,2.55
2019-02-23T07:28:26.698Z,2.57
2019-02-23T07:31:00.031Z,2.65
2019-02-23T07:33:33.455Z,2.80
2019-02-23T07:36:06.703Z,2.88
2019-02-23T07:38:40.007Z,3.06
2019-02-23T07:41:13.309Z,3.07
2019-02-23T07:43:46.658Z,3.27
2019-02-23T07:46:19.952Z,3.41
2019-02-23T07:48:53.251Z,3.48
2019-02-23T07:51:26.522Z,3.51
2019-02-23T07:53:59.832Z,3.56
2019-02-23T07:56:35.079Z,3.56
2019-02-23T07:59:08.148Z,3.58
2019-02-23T08:01:41.431Z,3.56
2019-02-23T08:04:14.758Z,3.55
2019-02-23T08:06:48.038Z,3.60
2019-02-23T08:09:21.350Z,3.66
2019-02-23T08:11:54.638Z,3.64
2019-02-23T08:14:27.943Z,3.71
2019-02-23T08:17:01.220Z,3.77
2019-02-23T08:19:35.040Z,3.81
2019-02-23T08:22:08.317Z,3.92
2019-02-23T08:24:41.719Z,3.95
2019-02-23T08:27:15.000Z,4.06
2019-02-23T08:29:49.334Z,4.08
2019-02-23T08:32:22.672Z,4.17
2019-02-23T08:34:55.975Z,4.24
2019-02-23T08:37:29.283Z,4.30
2019-02-23T08:40:02.839Z,4.36
2019-02-23T08:42:36.120Z,4.29
2019-02-23T08:45:10.598Z,4.36
2019-02-23T08:47:43.867Z,4.38
2019-02-23T08:50:17.197Z,4.52
2019-02-23T08:52:50.575Z,4.55
2019-02-23T08:55:24.425Z,4.66
2019-02-23T08:57:57.709Z,4.85
2019-02-23T09:00:30.987Z,4.94
2019-02-23T09:03:04.338Z,4.84
2019-02-23T09:05:37.693Z,4.95
2019-02-23T09:08:11.049Z,5.01
2019-02-23T09:10:44.443Z,5.02
2019-02-23T09:13:17.730Z,5.04
2019-02-23T09:15:51.033Z,5.11
2019-02-23T09:18:24.306Z,5.08
2019-02-23T09:20:57.708Z,5.26
2019-02-23T09:23:30.984Z,5.41
2019-02-23T09:26:04.346Z,5.55
2019-02-23T09:28:39.263Z,5.74
2019-02-23T09:31:12.561Z,5.84
2019-02-23T09:33:45.852Z,5.98
2019-02-23T09:36:19.183Z,5.94
2019-02-23T09:38:52.650Z,5.97
2019-02-23T09:41:25.965Z,6.00
2019-02-23T09:43:59.267Z,6.16
2019-02-23T09:46:32.553Z,6.12
2019-02-23T09:49:05.843Z,6.24
2019-02-23T09:51:39.178Z,6.27
2019-02-23T09:54:12.850Z,6.49
2019-02-23T09:56:46.173Z,6.60
2019-02-23T09:59:20.712Z,6.79
2019-02-23T10:01:54.014Z,6.79
2019-02-23T10:04:28.361Z,6.98
2019-02-23T10:07:01.677Z,7.02
2019-02-23T10:09:34.980Z,7.10
2019-02-23T10:12:08.282Z,6.89
2019-02-23T10:14:41.585Z,7.10
2019-02-23T10:17:14.877Z,7.02
2019-02-23T10:19:48.186Z,7.01
2019-02-23T10:22:21.483Z,7.07
2019-02-23T10:24:57.577Z,7.22
2019-02-23T10:27:30.897Z,7.28
2019-02-23T10:30:06.505Z,7.47
2019-02-23T10:32:39.783Z,7.67
2019-02-23T10:35:13.972Z,8.04
2019-02-23T10:37:47.250Z,7.85
2019-02-23T10:40:20.558Z,8.25
2019-02-23T10:42:53.839Z,8.46
2019-02-23T10:45:28.736Z,8.16
2019-02-23T10:48:02.070Z,8.10
2019-02-23T10:50:35.469Z,8.18
2019-02-23T10:53:08.734Z,8.25
2019-02-23T10:55:42.186Z,8.57
2019-02-23T10:58:15.454Z,8.81
2019-02-23T11:00:48.766Z,8.55
2019-02-23T11:03:22.042Z,9.15
2019-02-23T11:05:55.344Z,9.14
2019-02-23T11:08:28.602Z,9.01
2019-02-23T11:11:04.438Z,10.28
2019-02-23T11:30:48.087Z,15.06
2019-02-23T11:33:21.392Z,15.40
2019-02-23T11:35:54.699Z,15.06
2019-02-23T11:38:28.008Z,15.63
2019-02-23T11:41:03.638Z,15.47
2019-02-23T11:43:36.943Z,15.46
2019-02-23T11:46:10.284Z,15.59
2019-02-23T11:48:43.556Z,16.28
2019-02-23T11:51:16.861Z,16.04
2019-02-23T11:53:55.055Z,16.38
2019-02-23T11:56:26.818Z,15.12
2019-02-23T11:59:00.417Z,15.77
2019-02-23T12:01:33.719Z,15.71
2019-02-23T12:04:07.030Z,15.96
2019-02-23T12:06:40.337Z,15.77
2019-02-23T12:09:13.627Z,15.04
2019-02-23T12:11:46.924Z,15.32
2019-02-23T12:14:21.249Z,15.28
2019-02-23T12:16:54.548Z,14.56
2019-02-23T12:19:27.857Z,14.75
2019-02-23T12:22:11.798Z,15.37
2019-02-23T12:24:36.247Z,16.09
2019-02-23T12:27:09.545Z,16.10
2019-02-23T12:29:42.850Z,16.65
2019-02-23T12:32:16.144Z,17.08
2019-02-23T12:34:49.450Z,15.77
2019-02-23T14:22:49.705Z,11.23
2019-02-23T14:25:28.835Z,11.25
2019-02-23T14:28:08.282Z,11.09
2019-02-23T14:30:44.744Z,10.78
2019-02-23T14:33:24.146Z,10.74
2019-02-23T14:36:09.569Z,10.69
2019-02-23T14:39:04.698Z,10.86
2019-02-23T14:41:41.109Z,10.72
2019-02-23T14:44:17.653Z,10.60
2019-02-23T14:47:09.077Z,10.58
2019-02-23T14:49:51.435Z,10.59
2019-02-23T14:52:36.416Z,10.60
2019-02-23T14:55:29.341Z,10.59
2019-02-23T14:58:08.664Z,10.47
2019-02-23T15:01:04.793Z,10.50
2019-02-23T15:03:44.098Z,10.42
2019-02-23T15:06:42.971Z,10.39
2019-02-23T15:09:25.346Z,10.34
2019-02-23T15:12:07.921Z,10.29
2019-02-23T15:14:53.069Z,10.18
2019-02-23T15:17:47.684Z,10.15
2019-02-23T15:20:26.900Z,10.17
2019-02-23T15:23:18.327Z,10.08
2019-02-23T15:26:09.303Z,10.11
2019-02-23T15:28:51.360Z,10.10
2019-02-23T15:31:37.731Z,9.97
2019-02-23T15:34:31.658Z,9.88
2019-02-23T15:37:41.474Z,9.91
2019-02-23T15:40:26.900Z,9.92
2019-02-23T15:43:12.203Z,9.79
2019-02-23T15:46:06.855Z,9.69
2019-02-23T15:48:46.145Z,9.59
2019-02-23T15:51:19.424Z,9.47
2019-02-23T15:53:52.762Z,9.44
2019-02-23T15:56:26.126Z,9.33
2019-02-23T15:58:59.410Z,9.24
2019-02-23T16:01:32.871Z,9.09
2019-02-23T16:04:06.221Z,9.00
2019-02-23T16:06:39.521Z,8.92
2019-02-23T16:09:12.918Z,8.86
2019-02-23T16:11:46.186Z,8.75
2019-02-23T16:14:19.466Z,8.73
2019-02-23T16:16:52.847Z,8.56
2019-02-23T16:19:26.352Z,8.47
2019-02-23T16:21:59.706Z,8.36
2019-02-23T16:24:33.008Z,8.27
2019-02-23T16:27:06.322Z,8.24
2019-02-23T16:29:39.683Z,8.28
2019-02-23T16:32:13.075Z,8.13
2019-02-23T16:34:46.354Z,8.07
2019-02-23T16:37:19.647Z,7.92
2019-02-23T16:39:52.942Z,7.98
2019-02-23T16:42:26.235Z,7.83
2019-02-23T16:44:59.559Z,7.82
2019-02-23T16:47:32.862Z,7.89
2019-02-23T16:50:07.788Z,7.72
2019-02-23T16:52:41.138Z,7.68
2019-02-23T16:55:14.446Z,7.58
2019-02-23T16:57:47.755Z,7.56
2019-02-23T17:00:21.051Z,7.63
2019-02-23T17:02:54.417Z,7.36
2019-02-23T17:05:27.670Z,7.27
2019-02-23T17:08:00.993Z,7.28
2019-02-23T17:10:34.279Z,7.18
2019-02-23T17:13:07.586Z,7.30
2019-02-23T17:15:40.908Z,7.25
2019-02-23T17:18:14.212Z,7.21
2019-02-23T17:20:49.796Z,7.07
2019-02-23T17:23:23.111Z,7.00
2019-02-23T17:26:04.199Z,6.92
2019-02-23T17:28:32.071Z,6.87
2019-02-23T17:31:05.366Z,6.78
2019-02-23T17:33:38.654Z,6.77
2019-02-23T17:36:11.947Z,6.85
2019-02-23T17:38:45.265Z,6.91
2019-02-23T17:41:18.639Z,6.85
2019-02-23T17:43:54.154Z,6.74
2019-02-23T17:46:27.540Z,6.63
2019-02-23T17:49:00.871Z,6.42
2019-02-23T17:51:34.183Z,6.39
2019-02-23T17:54:07.494Z,6.31
2019-02-23T17:56:40.807Z,6.42
2019-02-23T17:59:14.150Z,6.32
2019-02-23T18:01:47.487Z,6.29
2019-02-23T18:04:20.834Z,6.28
2019-02-23T18:06:54.123Z,6.16
2019-02-23T18:09:27.438Z,6.20
2019-02-23T18:12:00.743Z,6.31
2019-02-23T18:14:34.043Z,6.11
2019-02-23T18:17:07.366Z,6.13
2019-02-23T18:19:40.673Z,6.20
2019-02-23T18:22:13.955Z,6.03
2019-02-23T18:24:47.249Z,5.89
2019-02-23T18:27:20.546Z,5.96
2019-02-23T18:29:53.835Z,5.80
2019-02-23T18:32:27.158Z,5.87
2019-02-23T18:35:00.737Z,5.77
2019-02-23T18:37:34.260Z,5.79
2019-02-23T18:40:08.385Z,5.65
2019-02-23T18:42:41.708Z,5.89
2019-02-23T18:45:15.003Z,5.90
2019-02-23T18:47:48.283Z,5.81
2019-02-23T18:50:22.224Z,5.93
2019-02-23T18:52:55.535Z,5.67
2019-02-23T18:55:28.930Z,5.57
2019-02-23T18:58:02.265Z,5.84
2019-02-23T19:00:35.635Z,5.84
2019-02-23T19:03:08.938Z,5.82
2019-02-23T19:05:49.700Z,5.62
2019-02-23T19:08:17.464Z,5.41
2019-02-23T19:10:50.768Z,5.15
2019-02-23T19:13:24.140Z,5.03
2019-02-23T19:15:57.428Z,4.94
2019-02-23T19:18:30.738Z,5.19
2019-02-23T19:21:04.063Z,5.08
2019-02-23T19:23:37.368Z,5.24
2019-02-23T19:26:10.797Z,5.13
2019-02-23T19:28:44.127Z,5.10
2019-02-23T19:31:17.412Z,5.60
2019-02-23T19:33:50.790Z,5.49
2019-02-23T19:36:24.058Z,5.41
2019-02-23T19:38:57.376Z,5.29
2019-02-23T19:41:30.647Z,5.35
2019-02-23T19:44:04.585Z,5.33
2019-02-23T19:46:41.244Z,5.21
2019-02-23T19:49:14.568Z,5.31
2019-02-23T19:51:48.016Z,5.36
2019-02-23T19:54:21.347Z,5.61
2019-02-23T19:56:54.597Z,5.65
2019-02-23T19:59:27.900Z,5.36
2019-02-23T20:02:01.176Z,5.31
2019-02-23T20:04:34.492Z,5.32
2019-02-23T20:07:07.857Z,5.19
2019-02-23T20:09:41.167Z,5.18
2019-02-23T20:12:14.448Z,5.00
2019-02-23T20:14:47.769Z,5.34
2019-02-23T20:17:21.050Z,5.20
2019-02-23T20:19:54.441Z,4.91
2019-02-23T20:22:27.741Z,4.81
2019-02-23T20:25:01.071Z,4.72
2019-02-23T20:27:34.362Z,4.77
2019-02-23T20:30:11.782Z,4.48
2019-02-23T20:32:45.087Z,4.68
2019-02-23T20:35:18.423Z,4.55
2019-02-23T20:37:51.695Z,4.50
2019-02-23T20:40:24.996Z,4.14
2019-02-23T20:42:58.351Z,3.65
2019-02-23T20:45:31.645Z,3.49
2019-02-23T20:48:05.005Z,3.30
2019-02-23T20:50:40.135Z,3.05
2019-02-23T20:53:13.336Z,3.00
2019-02-23T20:55:46.639Z,2.91
2019-02-23T20:58:19.954Z,2.85
2019-02-23T21:00:53.285Z,2.74
2019-02-23T21:03:26.570Z,2.60
2019-02-23T21:05:59.878Z,2.47
2019-02-23T21:08:33.234Z,2.48
2019-02-23T21:11:06.568Z,2.52
2019-02-23T21:13:39.856Z,2.57
2019-02-23T21:16:13.189Z,2.37
2019-02-23T21:18:46.482Z,2.45
2019-02-23T21:21:19.798Z,2.33
2019-02-23T21:23:53.110Z,2.22
2019-02-23T21:26:26.445Z,2.18
2019-02-23T21:28:59.726Z,2.10
2019-02-23T21:31:33.034Z,2.12
2019-02-23T21:34:08.000Z,1.98
2019-02-23T21:36:41.931Z,1.89
2019-02-23T21:39:15.292Z,1.86
2019-02-23T21:41:48.896Z,1.92
2019-02-23T21:44:22.199Z,1.85
2019-02-23T21:46:55.594Z,1.96
2019-02-23T21:49:28.884Z,1.72
2019-02-23T21:52:02.219Z,1.62
2019-02-23T21:54:35.649Z,1.89
2019-02-23T21:57:08.940Z,1.89
2019-02-23T21:59:42.238Z,1.81
2019-02-23T22:02:15.547Z,1.69
2019-02-23T22:04:48.853Z,1.54
2019-02-23T22:07:22.163Z,1.68
2019-02-23T22:09:55.444Z,1.60
2019-02-23T22:12:28.763Z,1.47
2019-02-23T22:15:02.113Z,1.44
2019-02-23T22:17:35.405Z,1.51
2019-02-23T22:20:08.745Z,1.46
2019-02-23T22:22:42.085Z,1.54
2019-02-23T22:25:15.414Z,1.49
2019-02-23T22:27:48.689Z,1.62
2019-02-23T22:30:21.970Z,1.71
2019-02-23T22:32:55.309Z,1.76
2019-02-23T22:35:28.623Z,1.65
2019-02-23T22:38:01.937Z,1.54
2019-02-23T22:40:35.201Z,1.60
2019-02-23T22:43:08.503Z,1.71
2019-02-23T22:45:41.825Z,1.65
2019-02-23T22:48:15.152Z,1.53
2019-02-23T22:50:48.449Z,1.41
2019-02-23T22:53:21.757Z,1.34
2019-02-23T22:55:55.049Z,1.44
2019-02-23T22:58:28.412Z,1.50
2019-02-23T23:01:02.809Z,1.52
2019-02-23T23:03:36.117Z,1.50
2019-02-23T23:06:09.685Z,1.48
2019-02-23T23:08:43.020Z,1.39
2019-02-23T23:11:16.308Z,1.33
2019-02-23T23:13:49.604Z,1.26
2019-02-23T23:16:22.911Z,1.32
2019-02-23T23:18:56.214Z,1.27
2019-02-23T23:21:29.504Z,1.25
2019-02-23T23:24:03.020Z,1.22
2019-02-23T23:26:36.329Z,1.20
2019-02-23T23:29:09.712Z,1.14
2019-02-23T23:31:43.046Z,1.09
2019-02-23T23:34:16.356Z,1.09
2019-02-23T23:36:49.644Z,1.00
2019-02-23T23:39:23.011Z,0.97
2019-02-23T23:41:56.301Z,0.76
2019-02-23T23:44:29.636Z,0.77
2019-02-23T23:47:02.922Z,0.71
2019-02-23T23:49:36.309Z,0.62
2019-02-23T23:52:09.552Z,0.54
2019-02-23T23:54:42.869Z,0.74
2019-02-23T23:57:16.154Z,0.76
2019-02-23T23:59:49.443Z,0.83
